createdAt,value
2018-04-19T18:49:56.294Z,1027.38
2018-04-19T18:51:05.142Z,1027.39
2018-04-19T18:52:13.989Z,1027.35
2018-04-19T18:53:23.401Z,1027.36
2018-04-19T18:54:32.217Z,1027.36
2018-04-19T18:55:41.347Z,1027.38
2018-04-19T18:56:50.182Z,1027.39
2018-04-19T18:57:59.305Z,1027.39
2018-04-19T18:59:08.143Z,1027.4
2018-04-19T19:00:16.984Z,1027.44
2018-04-19T19:01:25.826Z,1027.41
2018-04-19T19:02:34.676Z,1027.4
2018-04-19T19:03:43.802Z,1027.43
2018-04-19T19:04:52.653Z,1027.41
2018-04-19T19:06:01.509Z,1027.42
2018-04-19T19:07:10.351Z,1027.39
2018-04-19T19:08:19.194Z,1027.4
2018-04-19T19:09:28.032Z,1027.38
2018-04-19T19:10:36.872Z,1027.4
2018-04-19T19:11:46.263Z,1027.38
2018-04-19T19:12:55.104Z,1027.41
2018-04-19T19:14:04.219Z,1027.42
2018-04-19T19:15:13.338Z,1027.42
2018-04-19T19:16:22.178Z,1027.38
2018-04-19T19:17:31.022Z,1027.43
2018-04-19T19:18:39.867Z,1027.42
2018-04-19T19:19:48.980Z,1027.44
2018-04-19T19:20:57.921Z,1027.48
2018-04-19T19:22:07.044Z,1027.44
2018-04-19T19:23:15.887Z,1027.43
2018-04-19T19:24:24.725Z,1027.44
2018-04-19T19:25:33.574Z,1027.42
2018-04-19T19:26:42.843Z,1027.42
2018-04-19T19:27:51.677Z,1027.38
2018-04-19T19:29:00.517Z,1027.32
2018-04-19T19:30:09.374Z,1027.32
2018-04-19T19:31:18.222Z,1027.29
2018-04-19T19:32:27.065Z,1027.24
2018-04-19T19:33:36.176Z,1027.21
2018-04-19T19:34:45.017Z,1027.23
2018-04-19T19:35:53.856Z,1027.19
2018-04-19T19:37:02.703Z,1027.21
2018-04-19T19:38:12.461Z,1027.25
2018-04-19T19:39:21.298Z,1027.29
2018-04-19T19:40:30.134Z,1027.31
2018-04-19T19:41:38.975Z,1027.29
2018-04-19T19:42:47.812Z,1027.3
2018-04-19T19:43:57.318Z,1027.34
2018-04-19T19:45:06.416Z,1027.34
2018-04-19T19:46:15.262Z,1027.29
2018-04-19T19:47:24.095Z,1027.39
2018-04-19T19:48:32.934Z,1027.36
2018-04-19T19:49:41.824Z,1027.4
2018-04-19T19:50:50.665Z,1027.39
2018-04-19T19:51:59.778Z,1027.33
2018-04-19T19:53:08.617Z,1027.35
2018-04-19T19:54:17.456Z,1027.41
2018-04-19T19:55:26.377Z,1027.39
2018-04-19T19:56:35.178Z,1027.44
2018-04-19T19:57:43.981Z,1027.38
2018-04-19T19:58:52.819Z,1027.38
2018-04-19T20:00:01.656Z,1027.41
2018-04-19T20:01:10.777Z,1027.42
2018-04-19T20:02:19.622Z,1027.4
2018-04-19T20:03:28.458Z,1027.41
2018-04-19T20:04:37.296Z,1027.34
2018-04-19T20:05:46.159Z,1027.39
2018-04-19T20:06:55.930Z,1027.32
2018-04-19T20:08:05.051Z,1027.36
2018-04-19T20:09:13.892Z,1027.34
2018-04-19T20:10:22.732Z,1027.36
2018-04-19T20:11:31.571Z,1027.34
2018-04-19T20:12:40.694Z,1027.34
2018-04-19T20:13:49.535Z,1027.32
2018-04-19T20:14:58.653Z,1027.33
2018-04-19T20:16:07.494Z,1027.38
2018-04-19T20:17:16.604Z,1027.33
2018-04-19T20:18:25.446Z,1027.36
2018-04-19T20:19:34.314Z,1027.34
2018-04-19T20:20:43.417Z,1027.37
2018-04-19T20:21:52.529Z,1027.35
2018-04-19T20:23:01.646Z,1027.31
2018-04-19T20:24:10.534Z,1027.3
2018-04-19T20:25:19.373Z,1027.29
2018-04-19T20:26:28.212Z,1027.32
2018-04-19T20:27:37.052Z,1027.26
2018-04-19T20:28:46.172Z,1027.29
2018-04-19T20:29:55.013Z,1027.26
2018-04-19T20:31:03.851Z,1027.26
2018-04-19T20:32:12.690Z,1027.27
2018-04-19T20:33:21.527Z,1027.28
2018-04-19T20:34:30.363Z,1027.26
2018-04-19T20:35:39.377Z,1027.24
2018-04-19T20:36:48.603Z,1027.28
2018-04-19T20:37:57.441Z,1027.26
2018-04-19T20:39:06.564Z,1027.23
2018-04-19T20:40:15.388Z,1027.23
2018-04-19T20:41:24.930Z,1027.2
2018-04-19T20:42:33.771Z,1027.18
2018-04-19T20:43:42.610Z,1027.21
2018-04-19T20:44:51.720Z,1027.25
2018-04-19T20:46:00.559Z,1027.22
2018-04-19T20:47:09.825Z,1027.19
2018-04-19T20:48:18.944Z,1027.21
2018-04-19T20:49:27.786Z,1027.18
2018-04-19T20:50:36.623Z,1027.15
2018-04-19T20:51:45.467Z,1027.13
2018-04-19T20:52:54.354Z,1027.14
2018-04-19T20:54:03.191Z,1027.1
2018-04-19T20:55:12.029Z,1027.11
2018-04-19T20:56:20.866Z,1027.13
2018-04-19T20:57:29.979Z,1027.11
2018-04-19T20:58:38.918Z,1027.08
2018-04-19T20:59:48.308Z,1027.1
2018-04-19T21:00:57.146Z,1027.1
2018-04-19T21:02:05.999Z,1027.1
2018-04-19T21:03:15.233Z,1027.12
2018-04-19T21:04:24.171Z,1027.04
2018-04-19T21:05:33.285Z,1027.08
2018-04-19T21:06:42.406Z,1027.05
2018-04-19T21:07:51.240Z,1027.04
2018-04-19T21:09:00.354Z,1027.06
2018-04-19T21:10:09.240Z,1027.07
2018-04-19T21:11:18.077Z,1027.03
2018-04-19T21:12:26.916Z,1027.02
2018-04-19T21:13:35.754Z,1027.06
2018-04-19T21:14:44.593Z,1027.02
2018-04-19T21:15:53.531Z,1027.05
2018-04-19T21:17:02.370Z,1027.01
2018-04-19T21:18:11.482Z,1027.04
2018-04-19T21:19:20.320Z,1027.04
2018-04-19T21:20:29.439Z,1027.04
2018-04-19T21:21:38.578Z,1027.01
2018-04-19T21:22:47.415Z,1027.05
2018-04-19T21:23:56.252Z,1027.07
2018-04-19T21:25:05.368Z,1027.06
2018-04-19T21:26:14.207Z,1027.06
2018-04-19T21:27:23.352Z,1027.08
2018-04-19T21:28:32.189Z,1027.09
2018-04-19T21:29:41.026Z,1027.01
2018-04-19T21:30:49.864Z,1027.04
2018-04-19T21:31:58.704Z,1027
2018-04-19T21:33:07.597Z,1027
2018-04-19T21:34:16.433Z,1027.03
2018-04-19T21:35:25.271Z,1027.03
2018-04-19T21:36:34.389Z,1027.03
2018-04-19T21:37:43.515Z,1027.01
2018-04-19T21:38:52.407Z,1027
2018-04-19T21:40:01.243Z,1026.97
2018-04-19T21:41:10.357Z,1026.97
2018-04-19T21:42:19.195Z,1026.91
2018-04-19T21:43:28.031Z,1026.92
2018-04-19T21:44:36.968Z,1026.9
2018-04-19T21:45:45.805Z,1026.87
2018-04-19T21:46:54.643Z,1026.87
2018-04-19T21:48:03.481Z,1026.84
2018-04-19T21:49:12.597Z,1026.82
2018-04-19T21:50:21.537Z,1026.8
2018-04-19T21:51:30.375Z,1026.79
2018-04-19T21:52:39.215Z,1026.77
2018-04-19T21:53:48.329Z,1026.72
2018-04-19T21:54:57.167Z,1026.72
2018-04-19T21:56:06.056Z,1026.68
2018-04-19T21:57:15.451Z,1026.69
2018-04-19T21:58:24.287Z,1026.63
2018-04-19T21:59:33.125Z,1026.66
2018-04-19T22:00:41.961Z,1026.57
2018-04-19T22:01:50.948Z,1026.57
2018-04-19T22:03:00.061Z,1026.52
2018-04-19T22:04:08.903Z,1026.56
2018-04-19T22:05:17.739Z,1026.48
2018-04-19T22:06:26.578Z,1026.55
2018-04-19T22:07:35.792Z,1026.52
2018-04-19T22:08:44.634Z,1026.56
2018-04-19T22:09:54.141Z,1026.55
2018-04-19T22:11:02.977Z,1026.54
2018-04-19T22:12:11.816Z,1026.58
2018-04-19T22:13:20.653Z,1026.52
2018-04-19T22:14:29.491Z,1026.56
2018-04-19T22:15:38.333Z,1026.49
2018-04-19T22:16:47.444Z,1026.51
2018-04-19T22:17:56.282Z,1026.46
2018-04-19T22:19:05.119Z,1026.52
2018-04-19T22:20:14.236Z,1026.49
2018-04-19T22:21:23.350Z,1026.5
2018-04-19T22:22:32.188Z,1026.5
2018-04-19T22:23:41.026Z,1026.53
2018-04-19T22:24:49.864Z,1026.49
2018-04-19T22:25:58.703Z,1026.51
2018-04-19T22:27:07.546Z,1026.53
2018-04-19T22:28:16.383Z,1026.54
2018-04-19T22:29:25.223Z,1026.49
2018-04-19T22:30:34.337Z,1026.47
2018-04-19T22:31:43.177Z,1026.47
2018-04-19T22:32:52.015Z,1026.46
2018-04-19T22:34:00.860Z,1026.49
2018-04-19T22:35:09.981Z,1026.44
2018-04-19T22:36:18.971Z,1026.49
2018-04-19T22:37:27.807Z,1026.43
2018-04-19T22:38:36.644Z,1026.42
2018-04-19T22:39:45.754Z,1026.45
2018-04-19T22:40:54.591Z,1026.46
2018-04-19T22:42:03.730Z,1026.41
2018-04-19T22:43:12.842Z,1026.45
2018-04-19T22:44:21.678Z,1026.45
2018-04-19T22:45:30.516Z,1026.45
2018-04-19T22:46:39.356Z,1026.39
2018-04-19T22:47:48.534Z,1026.45
2018-04-19T22:48:57.640Z,1026.42
2018-04-19T22:50:06.761Z,1026.41
2018-04-19T22:51:15.876Z,1026.4
2018-04-19T22:52:24.713Z,1026.41
2018-04-19T22:53:33.648Z,1026.42
2018-04-19T22:54:42.487Z,1026.42
2018-04-19T22:55:51.327Z,1026.42
2018-04-19T22:57:00.165Z,1026.4
2018-04-19T22:58:09.281Z,1026.41
2018-04-19T22:59:18.118Z,1026.41
2018-04-19T23:00:26.957Z,1026.37
2018-04-19T23:01:35.799Z,1026.38
2018-04-19T23:02:44.908Z,1026.39
2018-04-19T23:03:53.742Z,1026.43
2018-04-19T23:05:02.740Z,1026.39
2018-04-19T23:06:12.140Z,1026.37
2018-04-19T23:07:20.975Z,1026.4
2018-04-19T23:08:29.813Z,1026.37
2018-04-19T23:09:38.649Z,1026.34
2018-04-19T23:10:48.061Z,1026.32
2018-04-19T23:11:56.900Z,1026.35
2018-04-19T23:13:05.737Z,1026.34
2018-04-19T23:14:14.575Z,1026.37
2018-04-19T23:15:23.687Z,1026.35
2018-04-19T23:16:32.625Z,1026.37
2018-04-19T23:17:41.741Z,1026.4
2018-04-19T23:18:50.581Z,1026.38
2018-04-19T23:19:59.971Z,1026.36
2018-04-19T23:21:08.810Z,1026.33
2018-04-19T23:22:17.695Z,1026.32
2018-04-19T23:23:26.808Z,1026.31
2018-04-19T23:24:35.642Z,1026.3
2018-04-19T23:25:44.482Z,1026.27
2018-04-19T23:26:53.319Z,1026.23
2018-04-19T23:28:02.717Z,1026.23
2018-04-19T23:29:11.469Z,1026.23
2018-04-19T23:30:20.595Z,1026.24
2018-04-19T23:31:29.711Z,1026.24
2018-04-19T23:32:38.820Z,1026.21
2018-04-19T23:33:48.236Z,1026.19
2018-04-19T23:34:57.076Z,1026.23
2018-04-19T23:36:06.477Z,1026.18
2018-04-19T23:37:15.591Z,1026.2
2018-04-19T23:38:24.704Z,1026.21
2018-04-19T23:39:34.387Z,1026.14
2018-04-19T23:40:43.228Z,1026.17
2018-04-19T23:41:52.064Z,1026.17
2018-04-19T23:43:00.902Z,1026.15
2018-04-19T23:44:09.739Z,1026.13
2018-04-19T23:45:18.731Z,1026.12
2018-04-19T23:46:27.561Z,1026.11
2018-04-19T23:47:36.398Z,1026.11
2018-04-19T23:48:45.234Z,1026.08
2018-04-19T23:49:54.079Z,1026.07
2018-04-19T23:51:02.956Z,1026.1
2018-04-19T23:52:11.790Z,1026.06
2018-04-19T23:53:20.627Z,1026.07
2018-04-19T23:54:29.464Z,1026.09
2018-04-19T23:55:38.575Z,1026.1
2018-04-19T23:56:47.463Z,1026.04
2018-04-19T23:57:56.849Z,1026.04
2018-04-19T23:59:05.688Z,1026.05
